sensor_id;sensor_type;location;lat;lon;timestamp;pressure;altitude;pressure_sealevel;temperature
15333;BMP180;7766;51.534;6.722;2022-12-18T15:19:32;101737.59;;;1.63
15333;BMP180;7766;51.534;6.722;2022-12-18T15:20:47;101733.03;;;1.67
15333;BMP180;7766;51.534;6.722;2022-12-18T15:21:49;101725.91;;;1.70
15333;BMP180;7766;51.534;6.722;2022-12-18T15:22:50;101724.78;;;1.74
15333;BMP180;7766;51.534;6.722;2022-12-18T15:23:52;101719.38;;;1.77
15333;BMP180;7766;51.534;6.722;2022-12-18T15:24:54;101718.56;;;1.76
15333;BMP180;7766;51.534;6.722;2022-12-18T15:26:16;101719.78;;;1.83
15333;BMP180;7766;51.534;6.722;2022-12-18T15:27:29;101718.13;;;1.82
15333;BMP180;7766;51.534;6.722;2022-12-18T15:29:40;101710.06;;;1.87
15333;BMP180;7766;51.534;6.722;2022-12-18T15:30:58;101719.38;;;1.89
15333;BMP180;7766;51.534;6.722;2022-12-18T15:32:04;101720.22;;;1.90
15333;BMP180;7766;51.534;6.722;2022-12-18T15:33:29;101707.56;;;1.97
15333;BMP180;7766;51.534;6.722;2022-12-18T15:34:31;101711.72;;;2.00
15333;BMP180;7766;51.534;6.722;2022-12-18T15:35:32;101705.81;;;1.98
15333;BMP180;7766;51.534;6.722;2022-12-18T15:36:34;101707.56;;;1.97
15333;BMP180;7766;51.534;6.722;2022-12-18T15:37:38;101724.25;;;1.93
15333;BMP180;7766;51.534;6.722;2022-12-18T15:38:39;101712.94;;;1.94
15333;BMP180;7766;51.534;6.722;2022-12-18T15:39:41;101711.50;;;2.03
15333;BMP180;7766;51.534;6.722;2022-12-18T15:40:42;101713.69;;;2.08
15333;BMP180;7766;51.534;6.722;2022-12-18T15:41:43;101712.72;;;2.09
15333;BMP180;7766;51.534;6.722;2022-12-18T15:43:05;101721.53;;;2.07
15333;BMP180;7766;51.534;6.722;2022-12-18T15:44:27;101716.06;;;1.99
15333;BMP180;7766;51.534;6.722;2022-12-18T15:45:29;101709.13;;;2.00
15333;BMP180;7766;51.534;6.722;2022-12-18T15:46:30;101704.84;;;1.99
15333;BMP180;7766;51.534;6.722;2022-12-18T15:47:31;101704.84;;;1.99
15333;BMP180;7766;51.534;6.722;2022-12-18T15:48:35;101710.34;;;2.06
15333;BMP180;7766;51.534;6.722;2022-12-18T15:49:38;101716.03;;;2.11
15333;BMP180;7766;51.534;6.722;2022-12-18T15:50:40;101720.19;;;2.14
15333;BMP180;7766;51.534;6.722;2022-12-18T15:51:41;101716.56;;;2.04
15333;BMP180;7766;51.534;6.722;2022-12-18T15:52:46;101723.00;;;2.11
15333;BMP180;7766;51.534;6.722;2022-12-18T15:53:50;101713.16;;;2.16
15333;BMP180;7766;51.534;6.722;2022-12-18T15:54:52;101715.63;;;2.17
15333;BMP180;7766;51.534;6.722;2022-12-18T15:56:13;101724.72;;;2.22
15333;BMP180;7766;51.534;6.722;2022-12-18T15:57:33;101717.38;;;2.17
15333;BMP180;7766;51.534;6.722;2022-12-18T15:58:34;101709.84;;;2.14
15333;BMP180;7766;51.534;6.722;2022-12-18T15:59:35;101709.84;;;2.14
15333;BMP180;7766;51.534;6.722;2022-12-18T16:00:38;101714.41;;;2.10
15333;BMP180;7766;51.534;6.722;2022-12-18T16:01:41;101707.16;;;2.03
15333;BMP180;7766;51.534;6.722;2022-12-18T16:02:42;101712.53;;;2.00
15333;BMP180;7766;51.534;6.722;2022-12-18T16:03:43;101708.38;;;2.10
15333;BMP180;7766;51.534;6.722;2022-12-18T16:04:44;101717.72;;;2.00
15333;BMP180;7766;51.534;6.722;2022-12-18T16:05:46;101717.72;;;2.00
15333;BMP180;7766;51.534;6.722;2022-12-18T16:06:48;101716.25;;;1.96
15333;BMP180;7766;51.534;6.722;2022-12-18T16:07:49;101722.69;;;2.03
15333;BMP180;7766;51.534;6.722;2022-12-18T16:08:50;101723.81;;;1.99
15333;BMP180;7766;51.534;6.722;2022-12-18T16:09:51;101721.44;;;1.96
15333;BMP180;7766;51.534;6.722;2022-12-18T16:10:52;101711.19;;;1.95
15333;BMP180;7766;51.534;6.722;2022-12-18T16:11:53;101723.81;;;1.99
15333;BMP180;7766;51.534;6.722;2022-12-18T16:12:54;101713.66;;;1.96
15333;BMP180;7766;51.534;6.722;2022-12-18T16:13:55;101726.63;;;1.96
15333;BMP180;7766;51.534;6.722;2022-12-18T16:14:56;101723.13;;;1.97
15333;BMP180;7766;51.534;6.722;2022-12-18T16:15:57;101714.28;;;2.00
15333;BMP180;7766;51.534;6.722;2022-12-18T16:17:00;101710.66;;;2.02
15333;BMP180;7766;51.534;6.722;2022-12-18T16:18:02;101712.09;;;2.06
15333;BMP180;7766;51.534;6.722;2022-12-18T16:19:03;101716.06;;;1.99
15333;BMP180;7766;51.534;6.722;2022-12-18T16:20:04;101722.16;;;1.98
15333;BMP180;7766;51.534;6.722;2022-12-18T16:21:05;101723.94;;;1.98
15333;BMP180;7766;51.534;6.722;2022-12-18T16:22:19;101726.00;;;1.93
15333;BMP180;7766;51.534;6.722;2022-12-18T16:23:21;101716.97;;;1.98
15333;BMP180;7766;51.534;6.722;2022-12-18T16:24:27;101712.03;;;1.95
15333;BMP180;7766;51.534;6.722;2022-12-18T16:25:29;101717.72;;;2.00
15333;BMP180;7766;51.534;6.722;2022-12-18T16:26:30;101706.59;;;1.98
15333;BMP180;7766;51.534;6.722;2022-12-18T16:27:31;101713.34;;;2.01
15333;BMP180;7766;51.534;6.722;2022-12-18T16:28:32;101713.66;;;1.96
15333;BMP180;7766;51.534;6.722;2022-12-18T16:29:33;101713.88;;;1.93
15333;BMP180;7766;51.534;6.722;2022-12-18T16:30:34;101710.44;;;1.93
15333;BMP180;7766;51.534;6.722;2022-12-18T16:31:36;101710.38;;;1.94
15333;BMP180;7766;51.534;6.722;2022-12-18T16:32:37;101706.00;;;1.95
15333;BMP180;7766;51.534;6.722;2022-12-18T16:33:38;101701.97;;;1.91
15333;BMP180;7766;51.534;6.722;2022-12-18T16:34:39;101706.59;;;1.98
15333;BMP180;7766;51.534;6.722;2022-12-18T16:35:40;101706.94;;;1.94
15333;BMP180;7766;51.534;6.722;2022-12-18T16:36:41;101707.84;;;1.93
15333;BMP180;7766;51.534;6.722;2022-12-18T16:37:42;101700.00;;;1.94
15333;BMP180;7766;51.534;6.722;2022-12-18T16:38:44;101702.06;;;1.90
15333;BMP180;7766;51.534;6.722;2022-12-18T16:39:45;101700.31;;;1.90
15333;BMP180;7766;51.534;6.722;2022-12-18T16:40:46;101700.09;;;1.93
15333;BMP180;7766;51.534;6.722;2022-12-18T16:42:14;101706.31;;;1.78
15333;BMP180;7766;51.534;6.722;2022-12-18T16:43:17;101710.47;;;1.81
15333;BMP180;7766;51.534;6.722;2022-12-18T16:44:18;101702.81;;;1.79
15333;BMP180;7766;51.534;6.722;2022-12-18T16:45:19;101695.56;;;1.84
15333;BMP180;7766;51.534;6.722;2022-12-18T16:46:20;101705.28;;;1.81
15333;BMP180;7766;51.534;6.722;2022-12-18T16:47:21;101689.41;;;1.85
15333;BMP180;7766;51.534;6.722;2022-12-18T16:48:22;101698.03;;;1.86
15333;BMP180;7766;51.534;6.722;2022-12-18T16:49:23;101706.94;;;1.82
15333;BMP180;7766;51.534;6.722;2022-12-18T16:50:24;101724.13;;;1.83
15333;BMP180;7766;51.534;6.722;2022-12-18T16:51:26;101709.00;;;1.77
15333;BMP180;7766;51.534;6.722;2022-12-18T16:52:27;101709.84;;;1.77
15333;BMP180;7766;51.534;6.722;2022-12-18T16:53:29;101711.38;;;1.80
15333;BMP180;7766;51.534;6.722;2022-12-18T16:54:30;101695.63;;;1.83
15333;BMP180;7766;51.534;6.722;2022-12-18T16:55:31;101706.75;;;1.85
15333;BMP180;7766;51.534;6.722;2022-12-18T16:56:32;101698.13;;;1.84
15333;BMP180;7766;51.534;6.722;2022-12-18T16:57:33;101697.09;;;1.87
15333;BMP180;7766;51.534;6.722;2022-12-18T16:58:34;101694.50;;;1.87
15333;BMP180;7766;51.534;6.722;2022-12-18T16:59:35;101693.47;;;1.77
15333;BMP180;7766;51.534;6.722;2022-12-18T17:00:38;101679.59;;;1.78
15333;BMP180;7766;51.534;6.722;2022-12-18T17:01:41;101689.75;;;1.81
15333;BMP180;7766;51.534;6.722;2022-12-18T17:02:42;101679.59;;;1.78
15333;BMP180;7766;51.534;6.722;2022-12-18T17:03:43;101679.59;;;1.78
15333;BMP180;7766;51.534;6.722;2022-12-18T17:04:45;101677.72;;;1.80
15333;BMP180;7766;51.534;6.722;2022-12-18T17:05:46;101679.38;;;1.81
15333;BMP180;7766;51.534;6.722;2022-12-18T17:06:47;101674.50;;;1.89
15333;BMP180;7766;51.534;6.722;2022-12-18T17:07:51;101678.75;;;1.90
15333;BMP180;7766;51.534;6.722;2022-12-18T17:08:56;101674.28;;;1.91
15333;BMP180;7766;51.534;6.722;2022-12-18T17:09:58;101665.19;;;1.86
15333;BMP180;7766;51.534;6.722;2022-12-18T17:11:08;101671.00;;;1.90
15333;BMP180;7766;51.534;6.722;2022-12-18T17:12:09;101665.59;;;1.92
15333;BMP180;7766;51.534;6.722;2022-12-18T17:13:10;101670.69;;;1.82
15333;BMP180;7766;51.534;6.722;2022-12-18T17:14:15;101664.75;;;1.80
15333;BMP180;7766;51.534;6.722;2022-12-18T17:15:17;101666.94;;;1.86
15333;BMP180;7766;51.534;6.722;2022-12-18T17:16:18;101666.63;;;1.78
15333;BMP180;7766;51.534;6.722;2022-12-18T17:17:19;101664.25;;;1.75
15333;BMP180;7766;51.534;6.722;2022-12-18T17:18:21;101663.22;;;1.77
15333;BMP180;7766;51.534;6.722;2022-12-18T17:19:23;101666.13;;;1.73
15333;BMP180;7766;51.534;6.722;2022-12-18T17:20:24;101659.38;;;1.83
15333;BMP180;7766;51.534;6.722;2022-12-18T17:21:25;101661.56;;;1.76
15333;BMP180;7766;51.534;6.722;2022-12-18T17:22:26;101658.22;;;1.74
15333;BMP180;7766;51.534;6.722;2022-12-18T17:23:28;101661.56;;;1.76
15333;BMP180;7766;51.534;6.722;2022-12-18T17:24:30;101666.63;;;1.78
15333;BMP180;7766;51.534;6.722;2022-12-18T17:25:31;101677.91;;;1.77
15333;BMP180;7766;51.534;6.722;2022-12-18T17:26:32;101653.06;;;1.74
15333;BMP180;7766;51.534;6.722;2022-12-18T17:27:33;101670.25;;;1.75
15333;BMP180;7766;51.534;6.722;2022-12-18T17:28:34;101661.84;;;1.72
15333;BMP180;7766;51.534;6.722;2022-12-18T17:29:35;101672.13;;;1.74
15333;BMP180;7766;51.534;6.722;2022-12-18T17:30:36;101668.91;;;1.70
15333;BMP180;7766;51.534;6.722;2022-12-18T17:31:37;101654.53;;;1.66
15333;BMP180;7766;51.534;6.722;2022-12-18T17:32:38;101654.53;;;1.66
15333;BMP180;7766;51.534;6.722;2022-12-18T17:33:39;101646.00;;;1.64
15333;BMP180;7766;51.534;6.722;2022-12-18T17:34:40;101657.41;;;1.62
15333;BMP180;7766;51.534;6.722;2022-12-18T17:35:41;101651.41;;;1.61
15333;BMP180;7766;51.534;6.722;2022-12-18T17:36:42;101641.69;;;1.53
15333;BMP180;7766;51.534;6.722;2022-12-18T17:37:43;101640.84;;;1.52
15333;BMP180;7766;51.534;6.722;2022-12-18T17:38:50;101636.72;;;1.50
15333;BMP180;7766;51.534;6.722;2022-12-18T17:39:52;101648.69;;;1.51
15333;BMP180;7766;51.534;6.722;2022-12-18T17:40:54;101659.91;;;1.51
15333;BMP180;7766;51.534;6.722;2022-12-18T17:41:55;101655.97;;;1.58
15333;BMP180;7766;51.534;6.722;2022-12-18T17:42:56;101653.69;;;1.54
15333;BMP180;7766;51.534;6.722;2022-12-18T17:44:03;101671.59;;;1.57
15333;BMP180;7766;51.534;6.722;2022-12-18T17:45:04;101666.63;;;1.54
15333;BMP180;7766;51.534;6.722;2022-12-18T17:46:07;101674.63;;;1.63
15333;BMP180;7766;51.534;6.722;2022-12-18T17:47:08;101675.16;;;1.56
15333;BMP180;7766;51.534;6.722;2022-12-18T17:48:11;101675.53;;;1.62
15333;BMP180;7766;51.534;6.722;2022-12-18T17:49:13;101684.97;;;1.63
15333;BMP180;7766;51.534;6.722;2022-12-18T17:50:14;101678.97;;;1.62
15333;BMP180;7766;51.534;6.722;2022-12-18T17:51:16;101668.38;;;1.53
15333;BMP180;7766;51.534;6.722;2022-12-18T17:52:17;101674.31;;;1.55
15333;BMP180;7766;51.534;6.722;2022-12-18T17:53:18;101670.69;;;1.58
15333;BMP180;7766;51.534;6.722;2022-12-18T17:54:19;101676.78;;;1.57
15333;BMP180;7766;51.534;6.722;2022-12-18T17:55:20;101672.56;;;1.56
15333;BMP180;7766;51.534;6.722;2022-12-18T17:56:23;101674.91;;;1.58
15333;BMP180;7766;51.534;6.722;2022-12-18T17:57:24;101684.34;;;1.59
15333;BMP180;7766;51.534;6.722;2022-12-18T17:58:28;101680.59;;;1.51
15333;BMP180;7766;51.534;6.722;2022-12-18T17:59:29;101679.78;;;1.51
15333;BMP180;7766;51.534;6.722;2022-12-18T18:00:30;101690.38;;;1.48
15333;BMP180;7766;51.534;6.722;2022-12-18T18:01:32;101676.47;;;1.49
15333;BMP180;7766;51.534;6.722;2022-12-18T18:02:33;101684.03;;;1.52
15333;BMP180;7766;51.534;6.722;2022-12-18T18:03:34;101667.97;;;1.47
15333;BMP180;7766;51.534;6.722;2022-12-18T18:04:37;101678.94;;;1.38
15333;BMP180;7766;51.534;6.722;2022-12-18T18:05:38;101669.31;;;1.40
15333;BMP180;7766;51.534;6.722;2022-12-18T18:06:39;101669.31;;;1.40
15333;BMP180;7766;51.534;6.722;2022-12-18T18:07:40;101668.38;;;1.41
15333;BMP180;7766;51.534;6.722;2022-12-18T18:08:41;101674.41;;;1.42
15333;BMP180;7766;51.534;6.722;2022-12-18T18:09:42;101678.84;;;1.40
15333;BMP180;7766;51.534;6.722;2022-12-18T18:10:43;101680.81;;;1.36
15333;BMP180;7766;51.534;6.722;2022-12-18T18:11:45;101682.69;;;1.34
15333;BMP180;7766;51.534;6.722;2022-12-18T18:13:17;101694.16;;;1.30
15333;BMP180;7766;51.534;6.722;2022-12-18T18:14:37;101679.34;;;1.32
15333;BMP180;7766;51.534;6.722;2022-12-18T18:15:38;101697.56;;;1.31
15333;BMP180;7766;51.534;6.722;2022-12-18T18:16:41;101677.69;;;1.31
15333;BMP180;7766;51.534;6.722;2022-12-18T18:17:42;101685.47;;;1.31
15333;BMP180;7766;51.534;6.722;2022-12-18T18:18:44;101687.03;;;1.34
15333;BMP180;7766;51.534;6.722;2022-12-18T18:19:45;101688.66;;;1.35
15333;BMP180;7766;51.534;6.722;2022-12-18T18:20:46;101686.63;;;1.40
15333;BMP180;7766;51.534;6.722;2022-12-18T18:21:48;101694.06;;;1.44
15333;BMP180;7766;51.534;6.722;2022-12-18T18:22:49;101687.44;;;1.40
15333;BMP180;7766;51.534;6.722;2022-12-18T18:23:50;101689.09;;;1.41
15333;BMP180;7766;51.534;6.722;2022-12-18T18:24:51;101679.66;;;1.40
15333;BMP180;7766;51.534;6.722;2022-12-18T18:25:53;101699.66;;;1.38
15333;BMP180;7766;51.534;6.722;2022-12-18T18:26:53;101681.66;;;1.37
15333;BMP180;7766;51.534;6.722;2022-12-18T18:27:54;101684.63;;;1.31
15333;BMP180;7766;51.534;6.722;2022-12-18T18:28:56;101691.56;;;1.30
15333;BMP180;7766;51.534;6.722;2022-12-18T18:29:57;101689.91;;;1.29
15333;BMP180;7766;51.534;6.722;2022-12-18T18:31:03;101685.66;;;1.28
15333;BMP180;7766;51.534;6.722;2022-12-18T18:32:04;101701.06;;;1.30
15333;BMP180;7766;51.534;6.722;2022-12-18T18:33:05;101687.53;;;1.27
15333;BMP180;7766;51.534;6.722;2022-12-18T18:34:06;101673.66;;;1.27
15333;BMP180;7766;51.534;6.722;2022-12-18T18:35:08;101681.22;;;1.30
15333;BMP180;7766;51.534;6.722;2022-12-18T18:36:10;101696.09;;;1.27
15333;BMP180;7766;51.534;6.722;2022-12-18T18:37:11;101677.91;;;1.28
15333;BMP180;7766;51.534;6.722;2022-12-18T18:38:12;101679.34;;;1.32
15333;BMP180;7766;51.534;6.722;2022-12-18T18:39:13;101679.25;;;1.34
15333;BMP180;7766;51.534;6.722;2022-12-18T18:40:14;101683.59;;;1.33
15333;BMP180;7766;51.534;6.722;2022-12-18T18:41:16;101693.94;;;1.33
15333;BMP180;7766;51.534;6.722;2022-12-18T18:42:18;101680.38;;;1.30
15333;BMP180;7766;51.534;6.722;2022-12-18T18:43:19;101676.66;;;1.34
15333;BMP180;7766;51.534;6.722;2022-12-18T18:44:20;101677.91;;;1.28
15333;BMP180;7766;51.534;6.722;2022-12-18T18:45:21;101675.41;;;1.27
15333;BMP180;7766;51.534;6.722;2022-12-18T18:46:23;101669.41;;;1.27
15333;BMP180;7766;51.534;6.722;2022-12-18T18:47:24;101676.75;;;1.32
15333;BMP180;7766;51.534;6.722;2022-12-18T18:48:26;101673.34;;;1.32
15333;BMP180;7766;51.534;6.722;2022-12-18T18:49:28;101677.31;;;1.37
15333;BMP180;7766;51.534;6.722;2022-12-18T18:50:29;101679.78;;;1.39
15333;BMP180;7766;51.534;6.722;2022-12-18T18:51:30;101687.44;;;1.40
15333;BMP180;7766;51.534;6.722;2022-12-18T18:52:31;101691.88;;;1.38
15333;BMP180;7766;51.534;6.722;2022-12-18T18:53:36;101689.50;;;1.35
15333;BMP180;7766;51.534;6.722;2022-12-18T18:54:37;101675.94;;;1.32
15333;BMP180;7766;51.534;6.722;2022-12-18T18:55:38;101696.34;;;1.36
15333;BMP180;7766;51.534;6.722;2022-12-18T18:56:39;101679.66;;;1.40
15333;BMP180;7766;51.534;6.722;2022-12-18T18:57:40;101684.94;;;1.39
15333;BMP180;7766;51.534;6.722;2022-12-18T18:58:42;101686.81;;;1.37
15333;BMP180;7766;51.534;6.722;2022-12-18T18:59:44;101689.41;;;1.37
15333;BMP180;7766;51.534;6.722;2022-12-18T19:00:57;101689.91;;;1.29
15333;BMP180;7766;51.534;6.722;2022-12-18T19:01:59;101672.41;;;1.33
15333;BMP180;7766;51.534;6.722;2022-12-18T19:03:00;101687.03;;;1.34
15333;BMP180;7766;51.534;6.722;2022-12-18T19:04:01;101683.41;;;1.36
15333;BMP180;7766;51.534;6.722;2022-12-18T19:05:02;101688.78;;;1.33
15333;BMP180;7766;51.534;6.722;2022-12-18T19:06:05;101686.91;;;1.35
15333;BMP180;7766;51.534;6.722;2022-12-18T19:07:06;101687.03;;;1.34
15333;BMP180;7766;51.534;6.722;2022-12-18T19:08:07;101683.09;;;1.41
15333;BMP180;7766;51.534;6.722;2022-12-18T19:09:08;101680.41;;;1.42
15333;BMP180;7766;51.534;6.722;2022-12-18T19:10:09;101682.47;;;1.37
15333;BMP180;7766;51.534;6.722;2022-12-18T19:11:11;101687.66;;;1.37
15333;BMP180;7766;51.534;6.722;2022-12-18T19:12:33;101683.19;;;1.39
15333;BMP180;7766;51.534;6.722;2022-12-18T19:13:53;101678.94;;;1.38
15333;BMP180;7766;51.534;6.722;2022-12-18T19:14:55;101670.78;;;1.32
15333;BMP180;7766;51.534;6.722;2022-12-18T19:16:04;101678.09;;;1.38
15333;BMP180;7766;51.534;6.722;2022-12-18T19:17:05;101678.53;;;1.44
15333;BMP180;7766;51.534;6.722;2022-12-18T19:18:05;101688.50;;;1.50
15333;BMP180;7766;51.534;6.722;2022-12-18T19:19:07;101679.19;;;1.47
15333;BMP180;7766;51.534;6.722;2022-12-18T19:20:08;101673.47;;;1.42
15333;BMP180;7766;51.534;6.722;2022-12-18T19:21:10;101680.22;;;1.45
15333;BMP180;7766;51.534;6.722;2022-12-18T19:22:11;101670.88;;;1.42
15333;BMP180;7766;51.534;6.722;2022-12-18T19:23:12;101670.78;;;1.44
15333;BMP180;7766;51.534;6.722;2022-12-18T19:24:13;101673.34;;;1.44
15333;BMP180;7766;51.534;6.722;2022-12-18T19:25:14;101674.41;;;1.42
15333;BMP180;7766;51.534;6.722;2022-12-18T19:26:16;101676.66;;;1.46
15333;BMP180;7766;51.534;6.722;2022-12-18T19:27:17;101664.69;;;1.45
15333;BMP180;7766;51.534;6.722;2022-12-18T19:28:20;101661.97;;;1.34
15333;BMP180;7766;51.534;6.722;2022-12-18T19:29:24;101665.09;;;1.39
15333;BMP180;7766;51.534;6.722;2022-12-18T19:30:25;101666.72;;;1.40
15333;BMP180;7766;51.534;6.722;2022-12-18T19:31:26;101658.03;;;1.41
15333;BMP180;7766;51.534;6.722;2022-12-18T19:32:27;101659.69;;;1.42
15333;BMP180;7766;51.534;6.722;2022-12-18T19:33:33;101657.00;;;1.43
